Time;durP1;ratioP1;P1;durP2;ratioP2;P2;SDS_P1;SDS_P2;PMS_P1;PMS_P2;Temp;Humidity;BMP_temperature;BMP_pressure;BME280_temperature;BME280_humidity;BME280_pressure;Samples;Min_cycle;Max_cycle;Signal;HPM_P1;HPM_P2
2022/02/10 00:17:01;;;;;;;8.77;3.63;;;;;;;;;;5016929;28;20144;-72
2022/02/10 00:25:03;;;;;;;7.20;3.83;;;;;;;;;;5032671;28;20050;-72
2022/02/10 00:36:10;;;;;;;7.35;4.13;;;;;;;;;;5032642;28;20041;-71
2022/02/10 00:38:33;;;;;;;6.95;3.95;;;;;;;;;;5032438;28;20409;-72
2022/02/10 00:41:00;;;;;;;7.75;3.70;;;;;;;;;;5032589;28;20092;-71
2022/02/10 00:43:27;;;;;;;8.10;3.95;;;;;;;;;;5032390;28;20037;-68
2022/02/10 00:45:55;;;;;;;5.55;3.50;;;;;;;;;;5032302;28;20386;-71
2022/02/10 00:48:23;;;;;;;5.18;3.25;;;;;;;;;;5032368;28;20037;-73
2022/02/10 00:50:51;;;;;;;5.90;3.47;;;;;;;;;;5032357;28;20041;-72
2022/02/10 00:53:28;;;;;;;7.25;3.35;;;;;;;;;;5032471;28;20053;-68
2022/02/10 00:55:56;;;;;;;5.95;3.22;;;;;;;;;;5031926;28;20047;-70
2022/02/10 00:58:30;;;;;;;5.88;3.45;;;;;;;;;;5032599;28;20037;-71
2022/02/10 01:12:26;;;;;;;5.65;2.90;;;;;;;;;;5032254;28;20067;-71
2022/02/10 01:31:27;;;;;;;8.05;3.65;;;;;;;;;;5031788;28;20052;-68
2022/02/10 01:33:55;;;;;;;6.80;3.63;;;;;;;;;;5031808;28;20457;-71
2022/02/10 01:36:22;;;;;;;9.73;3.60;;;;;;;;;;5031983;28;20052;-70
2022/02/10 01:38:50;;;;;;;7.78;3.40;;;;;;;;;;5032043;28;20045;-71
2022/02/10 01:42:03;;;;;;;5.68;3.42;;;;;;;;;;5031827;28;20041;-71
2022/02/10 01:58:38;;;;;;;7.57;3.28;;;;;;;;;;5035932;28;20121;-72
2022/02/10 02:03:54;;;;;;;5.95;2.70;;;;;;;;;;5035341;28;20050;-72
2022/02/10 02:06:39;;;;;;;4.55;2.83;;;;;;;;;;5034503;28;20048;-72
2022/02/10 02:09:13;;;;;;;7.57;2.97;;;;;;;;;;5034773;28;20048;-68
2022/02/10 02:11:41;;;;;;;3.53;2.65;;;;;;;;;;5034987;28;20121;-68
2022/02/10 02:14:22;;;;;;;8.73;3.00;;;;;;;;;;5017458;28;20045;-71
2022/02/10 02:16:51;;;;;;;9.68;3.17;;;;;;;;;;5035479;28;20129;-68
2022/02/10 02:19:19;;;;;;;4.53;2.67;;;;;;;;;;5035210;28;20037;-72
2022/02/10 02:21:46;;;;;;;4.10;2.65;;;;;;;;;;5034875;28;20037;-68
2022/02/10 02:24:20;;;;;;;4.15;2.88;;;;;;;;;;5034942;28;20041;-68
2022/02/10 02:26:48;;;;;;;5.93;2.42;;;;;;;;;;5035024;28;20105;-70
2022/02/10 02:29:26;;;;;;;5.93;2.40;;;;;;;;;;5035121;28;20374;-68
2022/02/10 02:32:06;;;;;;;7.15;2.60;;;;;;;;;;5034651;28;20473;-72
2022/02/10 03:05:14;;;;;;;2.83;2.08;;;;;;;;;;5034559;28;20049;-71
2022/02/10 03:07:48;;;;;;;6.22;2.45;;;;;;;;;;5034413;28;20051;-70
2022/02/10 03:12:46;;;;;;;9.75;2.60;;;;;;;;;;5034589;28;20132;-72
2022/02/10 03:15:28;;;;;;;3.00;2.20;;;;;;;;;;5034285;28;20042;-70
2022/02/10 03:18:43;;;;;;;3.65;2.38;;;;;;;;;;5034198;28;20128;-72
2022/02/10 03:21:25;;;;;;;8.20;2.40;;;;;;;;;;5026023;28;20136;-68
2022/02/10 04:12:49;;;;;;;3.70;1.85;;;;;;;;;;5024698;28;20053;-72
2022/02/10 05:20:42;;;;;;;5.35;2.10;;;;;;;;;;4971143;28;20426;-68
2022/02/10 05:33:59;;;;;;;4.88;2.25;;;;;;;;;;4994425;28;20137;-70
2022/02/10 05:36:31;;;;;;;4.22;2.13;;;;;;;;;;4994928;28;20054;-71
2022/02/10 05:39:09;;;;;;;4.03;2.45;;;;;;;;;;4994525;28;20133;-68
2022/02/10 05:47:19;;;;;;;5.40;2.70;;;;;;;;;;4994998;28;20049;-70
2022/02/10 05:58:13;;;;;;;4.25;2.60;;;;;;;;;;4993657;28;20586;-68
2022/02/10 07:04:35;;;;;;;7.13;3.55;;;;;;;;;;5013178;28;20045;-70
2022/02/10 07:07:02;;;;;;;9.82;4.18;;;;;;;;;;5032684;28;20416;-68
2022/02/10 07:10:03;;;;;;;9.65;3.30;;;;;;;;;;5032188;28;20038;-70
2022/02/10 09:02:20;;;;;;;14.57;5.65;;;;;;;;;;4990781;28;20064;-71
2022/02/10 09:24:34;;;;;;;11.15;4.00;;;;;;;;;;4971244;28;20130;-75
2022/02/10 10:03:18;;;;;;;7.45;3.53;;;;;;;;;;5065580;28;20033;-73
2022/02/10 10:06:12;;;;;;;14.52;3.67;;;;;;;;;;5072410;28;20140;-70
2022/02/10 10:09:06;;;;;;;9.15;3.65;;;;;;;;;;5071922;28;20056;-72
2022/02/10 10:12:02;;;;;;;11.70;3.70;;;;;;;;;;5072106;28;20379;-75
2022/02/10 10:14:43;;;;;;;9.82;3.42;;;;;;;;;;5068862;28;20037;-70
2022/02/10 10:21:05;;;;;;;8.50;3.88;;;;;;;;;;5013835;28;20157;-70
2022/02/10 10:46:57;;;;;;;7.32;2.50;;;;;;;;;;5010790;28;20061;-69
2022/02/10 10:51:03;;;;;;;7.03;2.88;;;;;;;;;;5012884;28;20046;-69
2022/02/10 11:38:07;;;;;;;5.65;2.33;;;;;;;;;;4934907;29;20052;-70
2022/02/10 11:41:29;;;;;;;7.32;2.28;;;;;;;;;;4934998;29;20040;-72
2022/02/10 13:23:25;;;;;;;3.17;1.70;;;;;;;;;;5039073;28;20125;-72
2022/02/10 14:15:50;;;;;;;4.38;1.58;;;;;;;;;;5018690;28;20044;-70
2022/02/10 14:18:25;;;;;;;7.60;1.70;;;;;;;;;;5049857;28;20499;-70
2022/02/10 14:21:02;;;;;;;6.90;1.50;;;;;;;;;;5051642;28;20045;-70
2022/02/10 14:28:46;;;;;;;6.38;1.90;;;;;;;;;;5052846;28;20037;-69
2022/02/10 14:31:16;;;;;;;2.90;1.50;;;;;;;;;;5035703;28;20507;-69
2022/02/10 14:33:47;;;;;;;4.82;1.67;;;;;;;;;;5053829;28;20110;-69
2022/02/10 14:36:24;;;;;;;5.35;1.60;;;;;;;;;;5053639;28;20492;-70
2022/02/10 16:17:23;;;;;;;2.60;1.92;;;;;;;;;;5052798;28;20041;-70
2022/02/10 16:19:50;;;;;;;5.95;2.83;;;;;;;;;;5053261;28;20124;-70
2022/02/10 16:24:51;;;;;;;7.00;2.63;;;;;;;;;;5052272;28;20041;-70
2022/02/10 16:27:28;;;;;;;5.32;3.30;;;;;;;;;;5052842;28;20040;-70
2022/02/10 16:30:04;;;;;;;5.70;3.30;;;;;;;;;;5052541;28;20041;-70
2022/02/10 16:32:39;;;;;;;6.90;3.08;;;;;;;;;;5052830;28;20033;-70
2022/02/10 16:35:11;;;;;;;7.15;3.10;;;;;;;;;;5046453;28;20120;-69
2022/02/10 16:37:46;;;;;;;7.75;3.58;;;;;;;;;;5039776;28;20037;-70
2022/02/10 16:40:21;;;;;;;7.05;3.95;;;;;;;;;;5034027;28;20041;-73
2022/02/10 16:42:54;;;;;;;9.32;4.20;;;;;;;;;;5052275;28;20129;-69
2022/02/10 16:45:27;;;;;;;9.50;3.83;;;;;;;;;;5034152;28;20040;-69
2022/02/10 16:47:59;;;;;;;8.38;4.47;;;;;;;;;;5049927;28;20048;-70
2022/02/10 16:50:33;;;;;;;7.93;4.93;;;;;;;;;;5051142;28;20077;-70
2022/02/10 16:53:11;;;;;;;9.95;5.50;;;;;;;;;;5051369;28;20619;-70
2022/02/10 17:01:42;;;;;;;10.07;5.35;;;;;;;;;;5030602;28;20053;-69
2022/02/10 17:21:00;;;;;;;19.30;7.18;;;;;;;;;;5052510;28;20140;-74
2022/02/10 17:26:57;;;;;;;13.88;7.50;;;;;;;;;;5052471;28;20178;-70
2022/02/10 17:28:56;;;;;;;15.05;7.68;;;;;;;;;;5050593;28;20130;-74
2022/02/10 17:34:37;;;;;;;14.13;7.40;;;;;;;;;;5055622;28;20439;-71
2022/02/10 17:37:28;;;;;;;10.82;8.10;;;;;;;;;;5052343;28;20047;-71
2022/02/10 17:45:36;;;;;;;15.55;8.32;;;;;;;;;;5049377;28;20064;-71
2022/02/10 17:53:41;;;;;;;18.33;7.28;;;;;;;;;;5056435;28;20075;-71
2022/02/10 17:56:09;;;;;;;12.50;6.85;;;;;;;;;;5056182;28;20412;-71
2022/02/10 17:58:37;;;;;;;10.00;6.55;;;;;;;;;;5055823;28;20039;-71
2022/02/10 18:01:08;;;;;;;14.65;7.28;;;;;;;;;;5055698;28;20151;-71
2022/02/10 18:03:36;;;;;;;12.75;6.85;;;;;;;;;;5056339;28;20048;-70
2022/02/10 18:14:09;;;;;;;20.55;8.30;;;;;;;;;;5053678;28;20037;-71
2022/02/10 18:17:27;;;;;;;20.80;8.18;;;;;;;;;;5055853;28;20409;-71
2022/02/10 18:19:40;;;;;;;17.08;8.00;;;;;;;;;;5044746;28;20082;-71
2022/02/10 18:22:30;;;;;;;15.23;7.72;;;;;;;;;;5050538;28;20044;-71
2022/02/10 18:27:30;;;;;;;13.60;7.30;;;;;;;;;;5054561;28;20120;-70
2022/02/10 19:05:28;;;;;;;12.27;7.55;;;;;;;;;;5045760;28;20124;-72
2022/02/10 19:09:09;;;;;;;15.73;8.02;;;;;;;;;;4982606;28;20161;-75
2022/02/10 19:11:45;;;;;;;15.70;8.55;;;;;;;;;;5048176;28;20492;-76
2022/02/10 19:14:17;;;;;;;22.90;11.57;;;;;;;;;;5032450;28;20436;-76
2022/02/10 19:16:44;;;;;;;29.23;12.73;;;;;;;;;;5041025;28;20123;-72
2022/02/10 19:19:15;;;;;;;31.73;13.57;;;;;;;;;;5048027;28;20041;-72
2022/02/10 19:21:42;;;;;;;33.72;14.02;;;;;;;;;;5053565;28;20376;-71
2022/02/10 19:24:10;;;;;;;34.20;14.73;;;;;;;;;;5052040;28;20466;-72
2022/02/10 19:26:38;;;;;;;37.88;16.02;;;;;;;;;;5052175;28;20115;-71
2022/02/10 19:29:06;;;;;;;44.55;18.50;;;;;;;;;;5034959;28;20036;-72
2022/02/10 19:31:36;;;;;;;47.17;19.90;;;;;;;;;;5052547;28;20033;-75
2022/02/10 19:34:04;;;;;;;42.22;19.58;;;;;;;;;;5033009;28;20039;-72
2022/02/10 19:36:34;;;;;;;54.80;21.08;;;;;;;;;;5048498;28;20045;-71
2022/02/10 19:39:02;;;;;;;43.55;19.27;;;;;;;;;;5047129;28;20061;-74
2022/02/10 19:41:34;;;;;;;45.22;20.17;;;;;;;;;;5047855;28;20056;-71
2022/02/10 19:44:02;;;;;;;44.30;18.58;;;;;;;;;;5042709;28;20121;-71
2022/02/10 19:46:35;;;;;;;44.40;19.25;;;;;;;;;;5033197;28;20099;-73
2022/02/10 19:49:03;;;;;;;40.42;19.70;;;;;;;;;;5049619;28;20043;-73
2022/02/10 19:51:31;;;;;;;44.22;20.08;;;;;;;;;;5047661;28;20034;-74
2022/02/10 19:53:59;;;;;;;42.25;19.77;;;;;;;;;;5049632;28;20423;-73
2022/02/10 19:56:29;;;;;;;45.65;19.35;;;;;;;;;;5050252;28;20037;-74
2022/02/10 19:58:56;;;;;;;46.67;19.35;;;;;;;;;;5053460;28;20107;-71
2022/02/10 20:01:26;;;;;;;37.50;17.98;;;;;;;;;;5053846;28;20338;-71
2022/02/10 20:04:00;;;;;;;41.08;17.35;;;;;;;;;;5054085;28;20047;-74
2022/02/10 20:06:27;;;;;;;35.03;16.83;;;;;;;;;;5050545;28;20040;-75
2022/02/10 20:08:55;;;;;;;37.22;17.88;;;;;;;;;;5032345;28;20043;-71
2022/02/10 20:11:23;;;;;;;37.75;18.08;;;;;;;;;;5041885;28;20092;-72
2022/02/10 20:13:52;;;;;;;32.95;17.20;;;;;;;;;;5044806;28;20032;-72
2022/02/10 20:16:21;;;;;;;35.55;16.20;;;;;;;;;;5045084;28;20473;-73
2022/02/10 20:18:49;;;;;;;36.40;15.80;;;;;;;;;;5043919;28;20044;-71
2022/02/10 20:21:17;;;;;;;35.33;15.98;;;;;;;;;;5042248;28;20073;-71
2022/02/10 20:23:45;;;;;;;35.95;15.10;;;;;;;;;;5033700;28;20124;-73
2022/02/10 20:26:13;;;;;;;34.10;14.93;;;;;;;;;;5033491;28;20068;-71
2022/02/10 20:28:42;;;;;;;28.95;14.98;;;;;;;;;;5046319;28;20040;-71
2022/02/10 20:31:09;;;;;;;46.20;15.88;;;;;;;;;;5032872;28;20136;-73
2022/02/10 20:33:38;;;;;;;33.97;14.85;;;;;;;;;;5033328;28;20045;-71
2022/02/10 20:36:06;;;;;;;33.97;15.77;;;;;;;;;;5032629;28;20052;-73
2022/02/10 20:38:40;;;;;;;31.25;14.80;;;;;;;;;;5032951;28;20125;-72
2022/02/10 20:41:12;;;;;;;32.55;14.98;;;;;;;;;;5032777;28;20120;-71
2022/02/10 20:43:40;;;;;;;31.37;15.00;;;;;;;;;;5033177;28;20045;-71
2022/02/10 20:46:11;;;;;;;28.10;14.63;;;;;;;;;;5015456;28;20408;-71
2022/02/10 20:48:40;;;;;;;29.65;14.38;;;;;;;;;;5032288;28;20503;-71
2022/02/10 20:51:09;;;;;;;29.77;14.55;;;;;;;;;;5016073;28;20672;-71
2022/02/10 20:53:38;;;;;;;31.35;13.90;;;;;;;;;;5037461;28;20388;-70
2022/02/10 20:56:08;;;;;;;30.23;13.52;;;;;;;;;;5031010;28;20045;-71
2022/02/10 20:58:36;;;;;;;37.78;14.15;;;;;;;;;;5046205;28;20044;-71
2022/02/10 21:01:06;;;;;;;30.60;11.90;;;;;;;;;;5048765;28;20079;-71
2022/02/10 21:03:36;;;;;;;26.40;10.25;;;;;;;;;;5030724;28;20400;-71
2022/02/10 21:06:19;;;;;;;22.70;11.85;;;;;;;;;;5048516;28;20035;-71
2022/02/10 21:11:23;;;;;;;;;;;;;;;;;;5040693;28;20041;-70
2022/02/10 21:13:50;;;;;;;19.40;9.32;;;;;;;;;;5048548;28;19925;-73
2022/02/10 21:16:18;;;;;;;20.15;9.93;;;;;;;;;;5039251;28;20068;-70
2022/02/10 21:18:48;;;;;;;21.08;10.15;;;;;;;;;;5042999;28;20047;-72
2022/02/10 21:21:17;;;;;;;22.88;10.88;;;;;;;;;;5043324;28;20044;-71
2022/02/10 21:24:00;;;;;;;19.67;10.05;;;;;;;;;;5039220;28;20234;-72
2022/02/10 21:26:33;;;;;;;26.77;10.43;;;;;;;;;;5043760;28;20143;-71
2022/02/10 21:29:04;;;;;;;21.63;11.57;;;;;;;;;;5043263;28;20135;-71
2022/02/10 21:31:32;;;;;;;31.02;11.18;;;;;;;;;;5042287;28;20075;-73
2022/02/10 21:34:13;;;;;;;29.05;11.73;;;;;;;;;;5033647;28;20045;-71
2022/02/10 21:37:00;;;;;;;24.38;11.85;;;;;;;;;;5046551;28;20077;-71
2022/02/10 21:47:42;;;;;;;16.35;8.88;;;;;;;;;;5044894;28;20045;-73
2022/02/10 21:53:41;;;;;;;19.08;8.85;;;;;;;;;;5043290;28;20128;-70
2022/02/10 22:09:17;;;;;;;19.58;7.65;;;;;;;;;;4994496;28;20052;-71
2022/02/10 22:19:58;;;;;;;15.48;7.55;;;;;;;;;;5015728;28;20049;-70
2022/02/10 22:22:35;;;;;;;16.10;6.97;;;;;;;;;;5015539;28;20046;-71
2022/02/10 22:25:07;;;;;;;15.25;7.10;;;;;;;;;;5015772;28;20053;-71
2022/02/10 22:27:40;;;;;;;17.92;6.68;;;;;;;;;;5015694;28;20159;-72
2022/02/10 22:30:17;;;;;;;14.70;6.47;;;;;;;;;;5015578;28;20117;-71
2022/02/10 22:33:07;;;;;;;12.95;6.25;;;;;;;;;;4998910;28;20144;-71
2022/02/10 22:35:34;;;;;;;18.80;6.30;;;;;;;;;;4997669;28;20038;-73
2022/02/10 22:38:02;;;;;;;11.35;5.80;;;;;;;;;;5015431;28;20046;-73
2022/02/10 22:40:58;;;;;;;10.63;5.68;;;;;;;;;;5012501;28;20050;-71
2022/02/10 22:43:29;;;;;;;10.30;5.65;;;;;;;;;;5015282;28;20045;-71
2022/02/10 22:45:58;;;;;;;10.05;5.13;;;;;;;;;;5015016;28;20038;-72
2022/02/10 22:48:25;;;;;;;9.95;5.30;;;;;;;;;;5014572;28;20102;-71
2022/02/10 22:50:53;;;;;;;10.48;5.47;;;;;;;;;;4997086;28;20037;-72
2022/02/10 22:53:20;;;;;;;9.38;5.18;;;;;;;;;;5015120;28;20041;-70
2022/02/10 22:55:49;;;;;;;10.35;5.45;;;;;;;;;;5014582;28;20045;-70
2022/02/10 22:58:17;;;;;;;11.32;5.93;;;;;;;;;;4996945;28;20054;-70
2022/02/10 23:00:48;;;;;;;12.00;5.78;;;;;;;;;;5014459;28;20057;-71
2022/02/10 23:03:20;;;;;;;14.13;5.00;;;;;;;;;;5014499;28;20104;-70
2022/02/10 23:05:49;;;;;;;11.73;4.90;;;;;;;;;;5015121;28;20056;-72
2022/02/10 23:08:29;;;;;;;7.68;4.72;;;;;;;;;;4992944;28;20116;-70
2022/02/10 23:10:57;;;;;;;11.90;4.88;;;;;;;;;;5014136;28;20046;-70
2022/02/10 23:13:28;;;;;;;10.60;5.22;;;;;;;;;;5014281;28;20073;-72
2022/02/10 23:15:59;;;;;;;14.27;6.30;;;;;;;;;;5014094;28;20053;-70
2022/02/10 23:18:30;;;;;;;15.18;7.10;;;;;;;;;;5014302;28;20052;-70
2022/02/10 23:20:58;;;;;;;16.35;6.18;;;;;;;;;;4994628;28;20081;-72
2022/02/10 23:23:28;;;;;;;16.92;6.75;;;;;;;;;;4976966;28;20407;-71
2022/02/10 23:25:56;;;;;;;16.52;7.05;;;;;;;;;;4994269;28;20064;-72
2022/02/10 23:28:29;;;;;;;12.20;5.75;;;;;;;;;;4976652;28;20121;-70
2022/02/10 23:30:57;;;;;;;11.93;5.80;;;;;;;;;;4994369;28;20460;-71
2022/02/10 23:33:32;;;;;;;7.93;4.88;;;;;;;;;;4994754;28;20189;-72
2022/02/10 23:38:50;;;;;;;9.48;5.07;;;;;;;;;;4994228;28;20047;-70
2022/02/10 23:43:55;;;;;;;13.02;4.15;;;;;;;;;;4978404;28;20068;-71
2022/02/10 23:46:23;;;;;;;9.52;3.88;;;;;;;;;;4976136;28;20101;-71
2022/02/10 23:48:53;;;;;;;7.05;3.60;;;;;;;;;;4993881;28;20564;-70
2022/02/10 23:51:25;;;;;;;5.28;3.15;;;;;;;;;;4994528;28;20046;-70
2022/02/10 23:53:53;;;;;;;7.25;3.10;;;;;;;;;;4994593;28;20074;-70
2022/02/10 23:56:26;;;;;;;7.00;3.38;;;;;;;;;;4994450;28;20110;-70
2022/02/10 23:59:02;;;;;;;4.50;3.10;;;;;;;;;;4976852;28;20137;-70
